createdAt,value
2019-03-09T00:01:02.891Z,26.20
2019-03-09T00:04:09.954Z,24.63
2019-03-09T00:07:15.747Z,25.07
2019-03-09T00:10:21.930Z,24.63
2019-03-09T00:13:27.856Z,23.90
2019-03-09T00:16:33.629Z,24.27
2019-03-09T00:19:39.408Z,21.27
2019-03-09T00:22:47.237Z,21.73
2019-03-09T00:26:27.197Z,21.23
2019-03-09T00:29:49.361Z,20.03
2019-03-09T00:32:55.088Z,20.43
2019-03-09T00:36:00.828Z,20.10
2019-03-09T00:39:08.035Z,19.50
2019-03-09T00:42:14.017Z,20.27
2019-03-09T00:45:19.873Z,19.77
2019-03-09T00:48:25.661Z,19.93
2019-03-09T00:51:31.543Z,19.87
2019-03-09T00:54:37.419Z,21.07
2019-03-09T00:57:43.331Z,21.40
2019-03-09T01:00:49.078Z,20.83
2019-03-09T01:03:54.810Z,21.53
2019-03-09T01:07:00.663Z,20.87
2019-03-09T01:10:07.855Z,20.97
2019-03-09T01:13:14.068Z,20.53
2019-03-09T01:16:20.696Z,20.97
2019-03-09T01:19:26.548Z,21.03
2019-03-09T01:22:32.290Z,20.97
2019-03-09T01:25:38.228Z,20.67
2019-03-09T01:28:43.955Z,20.73
2019-03-09T01:31:49.833Z,20.37
2019-03-09T01:34:55.533Z,20.17
2019-03-09T01:38:01.387Z,20.83
2019-03-09T01:41:07.266Z,24.30
2019-03-09T01:44:13.021Z,22.67
2019-03-09T01:47:18.892Z,21.70
2019-03-09T01:50:24.786Z,22.97
2019-03-09T01:53:36.809Z,21.63
2019-03-09T01:56:38.032Z,24.67
2019-03-09T01:59:43.895Z,25.27
2019-03-09T02:02:50.732Z,23.07
2019-03-09T02:05:56.481Z,23.10
2019-03-09T02:09:02.213Z,22.67
2019-03-09T02:12:09.723Z,23.03
2019-03-09T02:15:15.990Z,23.00
2019-03-09T02:18:21.781Z,21.17
2019-03-09T02:21:28.788Z,19.90
2019-03-09T02:24:34.555Z,18.97
2019-03-09T02:27:40.368Z,18.63
2019-03-09T02:30:46.169Z,18.37
2019-03-09T02:33:52.921Z,17.23
2019-03-09T02:36:58.693Z,16.60
2019-03-09T02:40:07.723Z,17.47
2019-03-09T02:43:13.470Z,17.27
2019-03-09T02:46:19.206Z,17.00
2019-03-09T02:49:24.970Z,16.67
2019-03-09T02:52:30.690Z,15.97
2019-03-09T02:55:36.477Z,16.50
2019-03-09T02:58:42.232Z,16.27
2019-03-09T03:01:53.768Z,16.47
2019-03-09T03:04:59.621Z,17.43
2019-03-09T03:08:05.494Z,15.70
2019-03-09T03:11:11.322Z,14.90
2019-03-09T03:14:17.163Z,17.30
2019-03-09T03:17:22.898Z,17.10
2019-03-09T03:20:28.712Z,18.23
2019-03-09T03:23:34.447Z,17.57
2019-03-09T03:26:41.303Z,18.50
2019-03-09T03:29:47.130Z,19.17
2019-03-09T03:32:56.526Z,17.50
2019-03-09T03:36:02.307Z,17.73
2019-03-09T03:39:08.945Z,17.50
2019-03-09T03:42:14.892Z,16.80
2019-03-09T03:45:20.731Z,16.40
2019-03-09T03:48:26.493Z,17.83
2019-03-09T03:51:32.268Z,16.90
2019-03-09T03:54:38.037Z,16.30
2019-03-09T03:57:43.760Z,17.67
2019-03-09T04:00:49.782Z,17.63
2019-03-09T04:03:55.715Z,16.63
2019-03-09T04:07:01.733Z,17.53
2019-03-09T04:10:08.116Z,16.70
2019-03-09T04:13:13.868Z,17.07
2019-03-09T04:16:19.721Z,17.80
2019-03-09T04:19:26.855Z,17.00
2019-03-09T04:22:32.631Z,17.23
2019-03-09T04:25:38.395Z,17.67
2019-03-09T04:28:44.194Z,17.80
2019-03-09T04:31:50.122Z,19.33
2019-03-09T04:34:56.157Z,17.07
2019-03-09T04:38:01.980Z,17.43
2019-03-09T04:41:07.728Z,17.93
2019-03-09T04:44:13.520Z,17.63
2019-03-09T04:47:19.262Z,18.40
2019-03-09T04:50:24.997Z,19.60
2019-03-09T04:53:30.765Z,18.70
2019-03-09T04:56:36.522Z,19.10
2019-03-09T04:59:42.325Z,19.63
2019-03-09T05:02:48.087Z,19.37
2019-03-09T05:05:54.096Z,19.13
2019-03-09T05:09:16.853Z,18.70
2019-03-09T05:12:22.576Z,20.10
2019-03-09T05:15:28.297Z,20.67
2019-03-09T05:18:35.155Z,20.20
2019-03-09T05:21:40.925Z,22.30
2019-03-09T05:24:46.676Z,21.77
2019-03-09T05:27:52.570Z,22.63
2019-03-09T05:30:58.329Z,24.00
2019-03-09T05:34:04.122Z,25.70
2019-03-09T05:37:10.065Z,25.00
2019-03-09T05:40:15.911Z,24.57
2019-03-09T05:43:21.727Z,23.83
2019-03-09T05:46:27.511Z,23.80
2019-03-09T05:49:33.274Z,23.83
2019-03-09T05:52:39.573Z,27.53
2019-03-09T05:55:45.315Z,25.53
2019-03-09T05:58:51.121Z,25.10
2019-03-09T06:01:57.003Z,27.13
2019-03-09T06:05:03.187Z,27.67
2019-03-09T06:08:09.701Z,30.07
2019-03-09T06:11:15.483Z,31.77
2019-03-09T06:14:21.399Z,29.97
2019-03-09T06:17:27.174Z,30.67
2019-03-09T06:20:33.038Z,31.17
2019-03-09T06:23:39.271Z,29.97
2019-03-09T06:26:45.137Z,31.57
2019-03-09T06:29:50.888Z,33.60
2019-03-09T06:33:31.992Z,32.80
2019-03-09T06:37:09.589Z,39.60
2019-03-09T06:40:15.456Z,37.03
2019-03-09T06:43:21.158Z,38.17
2019-03-09T06:46:26.967Z,40.77
2019-03-09T06:49:32.733Z,41.37
2019-03-09T06:52:38.486Z,43.57
2019-03-09T06:55:44.356Z,43.27
2019-03-09T06:58:50.153Z,41.67
2019-03-09T07:01:56.051Z,42.23
2019-03-09T07:05:01.807Z,42.47
2019-03-09T07:08:07.706Z,39.30
2019-03-09T07:11:13.850Z,40.80
2019-03-09T07:14:55.186Z,41.30
2019-03-09T07:18:09.355Z,37.27
2019-03-09T07:21:15.208Z,35.03
2019-03-09T07:24:20.977Z,35.60
2019-03-09T07:27:26.743Z,41.50
2019-03-09T07:30:32.826Z,38.33
2019-03-09T07:33:38.607Z,37.10
2019-03-09T07:36:44.359Z,36.70
2019-03-09T07:39:50.126Z,34.97
2019-03-09T07:42:56.084Z,33.47
2019-03-09T07:46:01.887Z,28.27
2019-03-09T07:49:07.750Z,18.67
2019-03-09T07:52:33.931Z,14.87
2019-03-09T07:55:40.874Z,10.60
2019-03-09T07:58:46.658Z,8.80
2019-03-09T08:01:52.424Z,6.37
2019-03-09T08:04:58.195Z,6.07
2019-03-09T08:08:04.181Z,6.13
2019-03-09T08:11:10.037Z,5.40
2019-03-09T08:14:15.846Z,5.50
2019-03-09T08:17:22.689Z,5.43
2019-03-09T08:20:28.447Z,5.40
2019-03-09T08:23:34.232Z,4.87
2019-03-09T08:26:39.947Z,4.87
2019-03-09T08:29:45.735Z,5.00
2019-03-09T08:32:51.663Z,4.73
2019-03-09T08:35:57.482Z,5.00
2019-03-09T08:39:04.084Z,5.00
2019-03-09T08:42:11.293Z,5.20
2019-03-09T08:45:18.234Z,4.80
2019-03-09T08:48:24.031Z,5.23
2019-03-09T08:51:29.814Z,5.90
2019-03-09T08:54:35.599Z,4.80
2019-03-09T08:57:41.333Z,5.00
2019-03-09T09:00:47.060Z,4.93
2019-03-09T09:03:52.885Z,5.10
2019-03-09T09:06:58.676Z,5.50
2019-03-09T09:10:04.585Z,4.83
2019-03-09T09:13:11.485Z,4.90
2019-03-09T09:16:20.702Z,5.40
2019-03-09T09:19:26.424Z,4.77
2019-03-09T09:22:38.586Z,4.50
2019-03-09T09:25:44.481Z,5.47
2019-03-09T09:28:50.209Z,4.73
2019-03-09T09:31:56.093Z,5.20
2019-03-09T09:35:01.848Z,5.00
2019-03-09T09:38:07.691Z,4.70
2019-03-09T09:41:13.831Z,4.33
2019-03-09T09:44:19.673Z,4.63
2019-03-09T09:47:25.405Z,3.50
2019-03-09T09:50:31.210Z,3.57
2019-03-09T09:53:37.082Z,3.87
2019-03-09T09:56:43.898Z,3.67
2019-03-09T09:59:49.732Z,4.20
2019-03-09T10:02:55.562Z,3.93
2019-03-09T10:06:01.461Z,4.00
2019-03-09T10:09:08.437Z,3.83
2019-03-09T10:12:14.407Z,3.67
2019-03-09T10:15:22.726Z,3.10
2019-03-09T10:18:28.560Z,4.13
2019-03-09T10:21:34.318Z,3.63
2019-03-09T10:24:42.532Z,3.70
2019-03-09T10:27:48.567Z,3.60
2019-03-09T10:30:54.520Z,3.37
2019-03-09T10:34:00.343Z,3.47
2019-03-09T10:37:06.149Z,3.33
2019-03-09T10:40:12.206Z,3.33
2019-03-09T10:43:18.245Z,3.53
2019-03-09T10:46:27.169Z,3.20
2019-03-09T10:49:33.092Z,3.40
2019-03-09T10:52:39.029Z,4.00
2019-03-09T10:55:44.978Z,3.10
2019-03-09T10:58:50.722Z,3.20
2019-03-09T11:01:56.569Z,3.00
2019-03-09T11:05:02.389Z,3.30
2019-03-09T11:08:08.197Z,3.50
2019-03-09T11:11:13.985Z,3.67
2019-03-09T11:14:19.685Z,2.90
2019-03-09T11:17:25.476Z,3.30
2019-03-09T11:20:31.218Z,3.20
2019-03-09T11:23:37.142Z,3.87
2019-03-09T11:26:42.973Z,2.80
2019-03-09T11:29:48.979Z,3.40
2019-03-09T11:32:55.068Z,3.60
2019-03-09T11:36:00.830Z,3.87
2019-03-09T11:39:09.042Z,3.50
2019-03-09T11:42:15.079Z,3.93
2019-03-09T11:45:21.328Z,4.10
2019-03-09T11:48:27.077Z,3.30
2019-03-09T11:51:32.844Z,3.33
2019-03-09T11:54:38.605Z,3.53
2019-03-09T11:57:44.491Z,3.47
2019-03-09T12:00:50.342Z,3.30
2019-03-09T12:03:56.119Z,2.67
2019-03-09T12:07:01.910Z,2.90
2019-03-09T12:10:08.339Z,3.23
2019-03-09T12:13:15.089Z,2.70
2019-03-09T12:16:21.364Z,3.53
2019-03-09T12:19:27.352Z,3.57
2019-03-09T12:22:33.209Z,2.60
2019-03-09T12:25:38.985Z,3.23
2019-03-09T12:28:44.826Z,3.77
2019-03-09T12:31:50.679Z,3.47
2019-03-09T12:34:56.464Z,3.43
2019-03-09T12:38:03.306Z,3.37
2019-03-09T12:41:09.035Z,2.93
2019-03-09T12:44:14.807Z,3.70
2019-03-09T12:47:21.190Z,3.63
2019-03-09T12:50:26.915Z,3.73
2019-03-09T12:53:32.652Z,3.30
2019-03-09T12:56:38.525Z,3.60
2019-03-09T12:59:44.219Z,4.00
2019-03-09T13:02:50.148Z,3.30
2019-03-09T13:05:55.863Z,3.43
2019-03-09T13:09:01.635Z,4.23
2019-03-09T13:12:09.010Z,4.20
2019-03-09T13:15:16.440Z,3.97
2019-03-09T13:18:22.162Z,4.27
2019-03-09T13:21:27.931Z,4.67
2019-03-09T13:24:33.662Z,4.87
2019-03-09T13:27:39.517Z,5.00
2019-03-09T13:30:45.343Z,4.83
2019-03-09T13:33:51.079Z,4.90
2019-03-09T13:36:56.891Z,5.67
2019-03-09T13:40:02.666Z,4.90
2019-03-09T13:43:09.687Z,5.23
2019-03-09T13:46:15.451Z,4.90
2019-03-09T13:49:21.182Z,4.37
2019-03-09T13:52:26.903Z,5.60
2019-03-09T13:55:32.699Z,5.57
2019-03-09T13:58:38.502Z,4.97
2019-03-09T14:01:44.283Z,4.73
2019-03-09T14:04:50.043Z,5.03
2019-03-09T14:07:55.815Z,4.93
2019-03-09T14:11:01.751Z,5.83
2019-03-09T14:14:07.710Z,5.53
2019-03-09T14:17:13.638Z,5.30
2019-03-09T14:20:19.686Z,5.07
2019-03-09T14:23:25.611Z,6.13
2019-03-09T14:26:31.572Z,4.63
2019-03-09T14:29:37.779Z,5.30
2019-03-09T14:32:44.763Z,5.27
2019-03-09T14:35:50.547Z,4.83
2019-03-09T14:38:56.265Z,3.83
2019-03-09T14:42:02.061Z,4.47
2019-03-09T14:45:11.016Z,3.30
2019-03-09T14:48:16.906Z,4.27
2019-03-09T14:51:22.950Z,4.83
2019-03-09T14:54:28.680Z,4.37
2019-03-09T14:57:34.515Z,4.17
2019-03-09T15:00:40.333Z,4.60
2019-03-09T15:03:46.119Z,4.60
2019-03-09T15:06:51.899Z,4.70
2019-03-09T15:09:57.681Z,4.47
2019-03-09T15:13:03.498Z,5.80
2019-03-09T15:16:09.267Z,3.70
2019-03-09T15:19:14.977Z,4.57
2019-03-09T15:22:20.712Z,4.67
2019-03-09T15:25:26.453Z,4.80
2019-03-09T15:28:32.220Z,3.70
2019-03-09T15:31:38.254Z,3.57
2019-03-09T15:34:44.070Z,3.87
2019-03-09T15:37:49.936Z,4.07
2019-03-09T15:40:55.790Z,4.23
2019-03-09T15:44:01.710Z,3.60
2019-03-09T15:47:07.628Z,3.63
2019-03-09T15:50:13.874Z,3.17
2019-03-09T15:53:19.766Z,3.70
2019-03-09T15:56:25.546Z,4.13
2019-03-09T15:59:31.374Z,4.27
2019-03-09T16:02:37.193Z,3.77
2019-03-09T16:05:42.929Z,4.13
2019-03-09T16:08:48.762Z,3.43
2019-03-09T16:11:54.510Z,3.47
2019-03-09T16:15:00.475Z,3.10
2019-03-09T16:18:06.494Z,3.70
2019-03-09T16:21:12.305Z,5.07
2019-03-09T16:24:18.044Z,4.23
2019-03-09T16:27:23.802Z,4.67
2019-03-09T16:30:29.709Z,4.60
2019-03-09T16:33:35.583Z,4.97
2019-03-09T16:36:41.341Z,5.30
2019-03-09T16:39:47.466Z,4.50
2019-03-09T16:42:53.428Z,4.90
2019-03-09T16:45:59.238Z,6.43
2019-03-09T16:49:05.191Z,6.03
2019-03-09T16:52:11.001Z,7.80
2019-03-09T16:55:16.946Z,7.67
2019-03-09T16:58:22.770Z,8.40
2019-03-09T17:01:28.528Z,8.23
2019-03-09T17:04:34.341Z,9.60
2019-03-09T17:07:40.154Z,7.83
2019-03-09T17:10:45.883Z,8.10
2019-03-09T17:13:51.845Z,8.97
2019-03-09T17:16:58.674Z,9.47
2019-03-09T17:20:04.543Z,8.87
2019-03-09T17:23:10.437Z,9.90
2019-03-09T17:26:17.321Z,8.73
2019-03-09T17:29:23.097Z,9.70
2019-03-09T17:32:28.924Z,9.43
2019-03-09T17:35:34.743Z,9.70
2019-03-09T17:38:40.511Z,9.87
2019-03-09T17:41:46.269Z,12.03
2019-03-09T17:44:52.051Z,11.10
2019-03-09T17:47:57.975Z,9.93
2019-03-09T17:51:03.809Z,11.37
2019-03-09T17:54:09.892Z,11.00
2019-03-09T17:57:15.866Z,9.83
2019-03-09T18:00:23.404Z,9.40
2019-03-09T18:03:29.181Z,9.43
2019-03-09T18:06:35.046Z,8.40
2019-03-09T18:09:40.856Z,9.10
2019-03-09T18:12:46.695Z,10.03
2019-03-09T18:15:52.611Z,8.20
2019-03-09T18:18:58.362Z,10.87
2019-03-09T18:22:04.131Z,10.47
2019-03-09T18:25:10.480Z,69.83
2019-03-09T18:28:16.368Z,109.90
2019-03-09T18:31:22.224Z,52.20
2019-03-09T18:34:27.999Z,20.77
2019-03-09T18:37:33.778Z,21.80
2019-03-09T18:40:39.578Z,36.97
2019-03-09T18:43:45.339Z,22.83
2019-03-09T18:46:51.144Z,30.50
2019-03-09T18:49:56.923Z,33.60
2019-03-09T18:53:02.660Z,36.20
2019-03-09T18:56:08.442Z,47.07
2019-03-09T18:59:14.187Z,41.70
2019-03-09T19:02:20.078Z,35.07
2019-03-09T19:05:25.811Z,23.47
2019-03-09T19:08:31.613Z,100.47
2019-03-09T19:11:37.523Z,73.07
2019-03-09T19:14:43.333Z,29.10
2019-03-09T19:17:49.351Z,52.40
2019-03-09T19:20:55.296Z,46.67
2019-03-09T19:24:01.036Z,111.10
2019-03-09T19:27:08.078Z,42.33
2019-03-09T19:30:15.692Z,88.43
2019-03-09T19:33:21.634Z,52.13
2019-03-09T19:36:27.441Z,85.53
2019-03-09T19:39:33.423Z,48.43
2019-03-09T19:42:39.507Z,107.77
2019-03-09T19:45:45.265Z,82.63
2019-03-09T19:48:51.099Z,46.77
2019-03-09T19:51:57.115Z,66.10
2019-03-09T19:55:03.540Z,24.90
2019-03-09T19:58:09.299Z,31.10
2019-03-09T20:01:15.068Z,16.47
2019-03-09T20:04:20.877Z,13.40
2019-03-09T20:07:29.307Z,11.97
2019-03-09T20:10:35.521Z,10.93
2019-03-09T20:13:41.302Z,11.30
2019-03-09T20:16:47.557Z,11.77
2019-03-09T20:19:53.449Z,10.83
2019-03-09T20:22:59.298Z,11.10
2019-03-09T20:26:05.261Z,10.17
2019-03-09T20:29:11.126Z,11.07
2019-03-09T20:32:17.058Z,11.33
2019-03-09T20:35:22.792Z,11.37
2019-03-09T20:38:28.758Z,10.83
2019-03-09T20:41:34.510Z,11.13
2019-03-09T20:44:40.311Z,11.53
2019-03-09T20:47:46.069Z,11.97
2019-03-09T20:50:51.865Z,12.87
2019-03-09T20:53:57.595Z,13.33
2019-03-09T20:57:03.462Z,13.23
2019-03-09T21:00:15.090Z,13.47
2019-03-09T21:03:22.782Z,13.20
2019-03-09T21:06:28.540Z,12.57
2019-03-09T21:09:34.280Z,13.20
2019-03-09T21:12:54.482Z,13.60
2019-03-09T21:16:00.280Z,14.87
2019-03-09T21:19:06.183Z,13.57
2019-03-09T21:22:11.970Z,13.33
2019-03-09T21:25:17.688Z,14.10
2019-03-09T21:28:23.602Z,14.43
2019-03-09T21:31:29.350Z,13.20
2019-03-09T21:34:35.247Z,13.07
2019-03-09T21:37:41.037Z,13.03
2019-03-09T21:40:46.925Z,12.93
2019-03-09T21:43:52.716Z,12.00
2019-03-09T21:46:58.562Z,10.57
2019-03-09T21:50:04.586Z,10.57
2019-03-09T21:53:10.384Z,11.80
2019-03-09T21:56:16.328Z,12.27
2019-03-09T21:59:22.066Z,11.97
2019-03-09T22:02:27.927Z,11.43
2019-03-09T22:05:33.665Z,11.03
2019-03-09T22:08:39.519Z,9.97
2019-03-09T22:11:45.325Z,10.33
2019-03-09T22:14:53.054Z,9.63
2019-03-09T22:17:58.588Z,9.73
2019-03-09T22:21:04.446Z,8.87
2019-03-09T22:24:10.213Z,8.07
2019-03-09T22:27:15.947Z,7.83
2019-03-09T22:30:21.908Z,8.37
2019-03-09T22:33:27.642Z,8.80
2019-03-09T22:36:33.376Z,7.57
2019-03-09T22:39:39.210Z,8.17
2019-03-09T22:42:45.209Z,7.87
2019-03-09T22:45:50.942Z,7.33
2019-03-09T22:48:56.743Z,8.00
2019-03-09T22:52:02.502Z,8.10
2019-03-09T22:55:09.264Z,7.53
2019-03-09T22:58:15.005Z,8.17
2019-03-09T23:01:21.120Z,8.23
2019-03-09T23:04:27.030Z,6.60
2019-03-09T23:07:32.825Z,7.03
2019-03-09T23:10:38.597Z,7.20
2019-03-09T23:13:44.367Z,6.80
2019-03-09T23:16:50.097Z,6.93
2019-03-09T23:19:55.882Z,6.37
2019-03-09T23:23:01.594Z,6.73
2019-03-09T23:26:07.368Z,6.80
2019-03-09T23:29:13.210Z,6.60
2019-03-09T23:32:19.004Z,6.00
2019-03-09T23:35:24.855Z,5.90
2019-03-09T23:38:30.591Z,7.00
2019-03-09T23:41:36.681Z,6.57
2019-03-09T23:44:42.676Z,7.13
2019-03-09T23:47:48.838Z,6.50
2019-03-09T23:50:54.868Z,6.50
2019-03-09T23:54:00.661Z,6.60
2019-03-09T23:57:06.632Z,6.40
